Time;durP1;ratioP1;P1;durP2;ratioP2;P2;SDS_P1;SDS_P2;PMS_P1;PMS_P2;Temp;Humidity;BMP_temperature;BMP_pressure;BME280_temperature;BME280_humidity;BME280_pressure;Samples;Min_cycle;Max_cycle;Signal;HPM_P1;HPM_P2
2022/03/28 00:00:38;;;;;;;23.20;11.98;;;;;;;10.42;56.00;102621.31;5034899;28;20025;-60
2022/03/28 00:03:05;;;;;;;26.77;11.93;;;;;;;10.38;56.24;102623.63;5052221;28;20049;-59
2022/03/28 00:05:30;;;;;;;19.65;11.38;;;;;;;10.37;55.75;102624.69;5051794;28;20037;-59
2022/03/28 00:07:58;;;;;;;24.27;11.90;;;;;;;10.35;56.24;102624.06;5052268;28;20043;-59
2022/03/28 00:10:24;;;;;;;23.30;11.77;;;;;;;10.30;55.93;102630.22;5051837;28;20017;-59
2022/03/28 00:12:50;;;;;;;21.42;11.60;;;;;;;10.30;56.11;102623.81;5053558;28;20029;-59
2022/03/28 00:15:15;;;;;;;25.17;11.43;;;;;;;10.24;56.46;102616.28;5051919;28;20079;-58
2022/03/28 00:17:40;;;;;;;21.70;10.90;;;;;;;10.23;56.46;102611.81;5044386;28;20025;-59
2022/03/28 00:20:09;;;;;;;26.23;11.32;;;;;;;10.20;55.98;102601.13;5039518;28;20024;-60
2022/03/28 00:22:35;;;;;;;23.02;10.93;;;;;;;10.20;56.10;102595.56;5044518;28;20376;-60
2022/03/28 00:25:00;;;;;;;24.90;11.32;;;;;;;10.15;56.50;102592.56;5039605;28;20032;-59
2022/03/28 00:27:26;;;;;;;19.58;10.98;;;;;;;10.18;56.17;102590.25;5057577;28;20037;-59
2022/03/28 00:29:54;;;;;;;28.42;11.52;;;;;;;10.08;56.47;102593.38;5050015;28;20029;-58
2022/03/28 00:32:19;;;;;;;22.55;11.48;;;;;;;10.08;56.44;102587.84;5055080;28;20400;-59
2022/03/28 00:34:45;;;;;;;22.38;10.80;;;;;;;10.06;56.63;102586.31;5057478;28;20041;-59
2022/03/28 00:37:10;;;;;;;25.27;11.10;;;;;;;10.04;56.65;102591.25;5051390;28;20033;-59
2022/03/28 00:39:36;;;;;;;20.50;10.57;;;;;;;10.04;56.10;102580.16;5043094;28;20600;-60
2022/03/28 00:42:01;;;;;;;19.25;10.18;;;;;;;10.02;56.04;102580.34;5063047;28;20391;-59
2022/03/28 00:44:30;;;;;;;22.38;11.07;;;;;;;9.99;56.38;102583.53;5057193;28;20029;-59
2022/03/28 00:46:58;;;;;;;17.73;9.80;;;;;;;9.97;56.68;102570.94;5054864;28;20037;-60
2022/03/28 00:49:24;;;;;;;23.20;10.52;;;;;;;9.93;56.56;102572.41;5053252;28;20041;-59
2022/03/28 00:51:50;;;;;;;22.25;10.48;;;;;;;9.92;56.26;102577.09;5053198;28;20044;-59
2022/03/28 00:54:15;;;;;;;26.38;10.40;;;;;;;9.91;56.37;102569.84;5039071;28;20029;-59
2022/03/28 00:56:42;;;;;;;19.23;9.85;;;;;;;9.83;56.76;102572.81;5053676;28;20530;-59
2022/03/28 00:59:08;;;;;;;17.80;10.27;;;;;;;9.80;56.45;102567.66;5049868;28;20029;-59
2022/03/28 01:01:36;;;;;;;20.75;10.90;;;;;;;9.78;56.77;102567.00;5062885;28;20036;-59
2022/03/28 01:04:04;;;;;;;19.17;10.02;;;;;;;9.78;57.16;102564.22;5056717;28;20191;-59
2022/03/28 01:06:31;;;;;;;20.45;11.00;;;;;;;9.76;56.86;102553.34;5054158;28;20029;-59
2022/03/28 01:08:56;;;;;;;16.85;10.43;;;;;;;9.74;56.90;102557.38;5051514;28;20048;-59
2022/03/28 01:11:22;;;;;;;21.00;11.18;;;;;;;9.72;57.08;102548.44;5061250;28;20033;-59
2022/03/28 01:13:48;;;;;;;19.73;10.38;;;;;;;9.68;56.69;102553.53;5046027;28;20031;-60
2022/03/28 01:16:13;;;;;;;20.38;10.00;;;;;;;9.67;56.60;102546.28;5048941;28;20032;-60
2022/03/28 01:18:47;;;;;;;23.77;11.13;;;;;;;9.66;57.04;102549.25;5041571;28;20029;-60
2022/03/28 01:21:12;;;;;;;20.05;10.13;;;;;;;9.66;57.17;102543.69;5051291;28;20033;-60
2022/03/28 01:23:39;;;;;;;20.63;10.60;;;;;;;9.61;56.91;102543.47;5050563;28;20033;-60
2022/03/28 01:26:05;;;;;;;15.50;9.30;;;;;;;9.56;56.85;102539.41;5046469;28;20598;-60
2022/03/28 01:28:31;;;;;;;19.83;10.63;;;;;;;9.53;57.19;102538.94;5039247;28;20029;-60
2022/03/28 01:30:56;;;;;;;20.25;10.30;;;;;;;9.53;57.24;102533.41;5057581;28;20028;-59
2022/03/28 01:33:22;;;;;;;21.92;9.75;;;;;;;9.52;57.27;102526.16;5060003;28;20104;-60
2022/03/28 01:35:47;;;;;;;20.48;9.98;;;;;;;9.50;57.19;102522.72;5050624;28;20091;-59
2022/03/28 01:38:15;;;;;;;21.08;10.93;;;;;;;9.49;57.38;102527.41;5060879;28;20041;-59
2022/03/28 01:40:43;;;;;;;20.80;11.27;;;;;;;9.47;57.19;102525.91;5050950;28;20040;-60
2022/03/28 01:43:09;;;;;;;24.20;11.13;;;;;;;9.47;56.99;102512.91;5050143;28;20439;-60
2022/03/28 01:45:35;;;;;;;19.65;10.07;;;;;;;9.44;56.99;102513.31;5041407;28;20096;-59
2022/03/28 01:48:00;;;;;;;20.88;11.23;;;;;;;9.42;57.34;102517.34;5050882;28;20036;-60
2022/03/28 01:50:26;;;;;;;20.38;10.77;;;;;;;9.39;57.50;102514.97;5043164;28;20051;-59
2022/03/28 01:52:54;;;;;;;18.52;10.48;;;;;;;9.31;57.66;102514.13;5037662;28;20061;-60
2022/03/28 01:55:19;;;;;;;23.85;11.10;;;;;;;9.35;57.39;102522.84;5043869;28;20025;-59
2022/03/28 01:57:45;;;;;;;21.15;10.63;;;;;;;9.29;57.46;102515.38;5050000;28;20075;-60
2022/03/28 02:00:13;;;;;;;20.73;10.80;;;;;;;9.28;57.96;102517.28;5050736;28;20510;-60
2022/03/28 02:02:38;;;;;;;20.10;10.15;;;;;;;9.28;57.39;102520.06;5050666;28;20044;-60
2022/03/28 02:05:05;;;;;;;21.90;10.82;;;;;;;9.25;58.07;102508.53;5054298;28;20465;-59
2022/03/28 02:07:30;;;;;;;21.90;11.20;;;;;;;9.28;57.77;102503.44;5047694;28;20024;-59
2022/03/28 02:09:55;;;;;;;18.80;10.35;;;;;;;9.28;57.49;102505.34;5054408;28;20388;-60
2022/03/28 02:12:21;;;;;;;23.00;10.45;;;;;;;9.22;57.54;102508.91;5049456;28;20032;-60
2022/03/28 02:14:46;;;;;;;20.70;10.68;;;;;;;9.17;57.83;102505.91;5050221;28;20039;-59
2022/03/28 02:17:12;;;;;;;25.10;11.55;;;;;;;9.11;57.61;102507.56;5048827;28;20769;-60
2022/03/28 02:19:38;;;;;;;25.23;10.82;;;;;;;9.13;57.14;102505.47;5054743;28;20028;-59
2022/03/28 02:22:03;;;;;;;22.05;10.45;;;;;;;9.07;57.56;102507.13;5057225;28;20047;-59
2022/03/28 02:24:29;;;;;;;19.88;10.68;;;;;;;9.08;57.35;102500.53;5043956;28;20484;-59
2022/03/28 02:26:54;;;;;;;19.13;10.57;;;;;;;9.07;57.78;102496.03;5047295;28;20033;-60
2022/03/28 02:29:20;;;;;;;19.50;10.40;;;;;;;9.06;57.75;102487.94;5046186;28;20044;-59
2022/03/28 02:31:45;;;;;;;23.27;10.82;;;;;;;9.01;57.94;102491.31;5051941;28;20376;-59
2022/03/28 02:34:11;;;;;;;18.95;10.27;;;;;;;9.03;58.04;102493.88;5048066;28;20037;-60
2022/03/28 02:36:36;;;;;;;23.63;11.18;;;;;;;9.03;57.96;102478.09;5045552;28;20037;-59
2022/03/28 02:39:01;;;;;;;21.02;10.88;;;;;;;9.01;58.08;102483.00;5056837;28;20438;-58
2022/03/28 02:41:26;;;;;;;22.42;10.68;;;;;;;9.04;58.83;102481.75;5040238;28;20026;-59
2022/03/28 02:43:52;;;;;;;23.05;10.05;;;;;;;9.01;58.98;102476.63;5044721;28;20366;-59
2022/03/28 02:46:18;;;;;;;20.75;10.85;;;;;;;8.96;58.29;102471.69;5044791;28;20036;-59
2022/03/28 02:48:43;;;;;;;24.83;11.60;;;;;;;8.92;58.18;102472.28;5033826;28;20453;-59
2022/03/28 02:51:11;;;;;;;21.83;10.60;;;;;;;8.94;58.66;102457.19;5042195;28;20087;-59
2022/03/28 02:53:37;;;;;;;24.80;11.35;;;;;;;8.90;58.46;102460.56;5036207;28;20064;-58
2022/03/28 02:56:11;;;;;;;20.77;12.10;;;;;;;8.87;58.41;102456.28;5037753;28;20053;-59
2022/03/28 02:58:36;;;;;;;24.52;10.93;;;;;;;8.85;58.09;102461.19;5045044;28;20029;-58
2022/03/28 03:01:01;;;;;;;22.52;11.73;;;;;;;8.81;58.53;102452.41;5038201;28;20027;-58
2022/03/28 03:03:27;;;;;;;27.80;10.70;;;;;;;8.84;58.50;102463.09;5037867;28;20049;-59
2022/03/28 03:05:52;;;;;;;18.65;10.98;;;;;;;8.80;58.00;102461.78;5049060;28;20032;-59
2022/03/28 03:08:17;;;;;;;18.88;10.52;;;;;;;8.81;58.70;102454.34;5048070;28;20508;-59
2022/03/28 03:10:43;;;;;;;22.60;11.27;;;;;;;8.78;58.92;102451.97;5032579;28;20045;-59
2022/03/28 03:13:08;;;;;;;24.17;10.82;;;;;;;8.76;58.36;102456.84;5038330;28;20037;-58
2022/03/28 03:15:34;;;;;;;22.98;11.18;;;;;;;8.71;58.81;102446.38;5050666;28;20033;-59
2022/03/28 03:18:03;;;;;;;23.25;11.65;;;;;;;8.71;58.91;102440.84;5041316;28;20037;-61
2022/03/28 03:20:28;;;;;;;22.50;10.68;;;;;;;8.71;58.88;102440.84;5050953;28;20033;-60
2022/03/28 03:22:53;;;;;;;20.77;10.70;;;;;;;8.68;59.08;102440.38;5036280;28;20021;-60
2022/03/28 03:25:19;;;;;;;23.52;10.85;;;;;;;8.66;59.33;102439.75;5031178;28;20048;-59
2022/03/28 03:27:44;;;;;;;22.30;10.77;;;;;;;8.63;58.95;102441.00;5044715;28;20033;-59
2022/03/28 03:30:10;;;;;;;23.25;11.15;;;;;;;8.62;59.09;102446.75;5049405;28;20025;-59
2022/03/28 03:32:39;;;;;;;21.88;11.50;;;;;;;8.57;58.96;102439.06;5044490;28;20025;-60
2022/03/28 03:35:10;;;;;;;21.00;10.90;;;;;;;8.61;59.27;102437.59;5041971;28;20025;-60
2022/03/28 03:37:36;;;;;;;22.10;10.40;;;;;;;8.57;59.23;102426.06;5048879;28;20383;-59
2022/03/28 03:40:05;;;;;;;23.30;10.32;;;;;;;8.54;58.96;102429.22;5047380;28;20025;-60
2022/03/28 03:42:31;;;;;;;20.88;10.70;;;;;;;8.55;58.66;102425.38;5059246;28;20021;-59
2022/03/28 03:44:58;;;;;;;22.67;10.85;;;;;;;8.50;58.23;102427.91;5049884;28;20029;-59
2022/03/28 03:47:23;;;;;;;24.67;11.27;;;;;;;8.46;59.14;102421.06;5045290;28;20060;-60
2022/03/28 03:49:49;;;;;;;20.85;11.00;;;;;;;8.46;59.31;102418.31;5052442;28;20063;-60
2022/03/28 03:52:14;;;;;;;23.30;10.32;;;;;;;8.46;58.90;102415.53;5043447;28;20049;-60
2022/03/28 03:54:40;;;;;;;22.77;11.00;;;;;;;8.46;58.87;102407.25;5035264;28;20598;-59
2022/03/28 03:57:05;;;;;;;23.27;10.95;;;;;;;8.44;59.31;102408.47;5042639;28;20029;-59
2022/03/28 03:59:31;;;;;;;31.30;11.70;;;;;;;8.44;59.25;102406.56;5037246;28;20057;-59
2022/03/28 04:01:56;;;;;;;24.45;11.10;;;;;;;8.42;59.21;102405.09;5053378;28;20045;-59
2022/03/28 04:04:21;;;;;;;21.10;10.27;;;;;;;8.41;58.91;102407.00;5043942;28;20542;-59
2022/03/28 04:06:47;;;;;;;22.13;9.95;;;;;;;8.36;59.16;102399.25;5047135;28;20068;-58
2022/03/28 04:09:33;;;;;;;24.15;10.93;;;;;;;8.34;59.28;102406.03;5035635;28;20300;-59
2022/03/28 04:11:58;;;;;;;24.92;11.27;;;;;;;8.33;59.19;102405.19;5050669;28;20044;-59
2022/03/28 04:14:23;;;;;;;22.45;11.02;;;;;;;8.35;59.50;102402.22;5044925;28;20033;-60
2022/03/28 04:16:49;;;;;;;20.10;11.02;;;;;;;8.35;59.21;102399.44;5045924;28;20079;-59
2022/03/28 04:19:14;;;;;;;28.60;11.80;;;;;;;8.30;59.31;102385.38;5039686;28;20029;-59
2022/03/28 04:21:43;;;;;;;22.30;10.65;;;;;;;8.33;59.02;102394.13;5048978;28;20077;-58
2022/03/28 04:24:14;;;;;;;22.05;10.60;;;;;;;8.29;59.31;102394.69;5053864;28;20034;-59
2022/03/28 04:26:39;;;;;;;24.27;10.07;;;;;;;8.22;59.42;102386.38;5051787;28;20032;-58
2022/03/28 04:29:05;;;;;;;26.67;11.27;;;;;;;8.18;59.83;102395.28;5047382;28;20024;-59
2022/03/28 04:31:39;;;;;;;23.00;10.57;;;;;;;8.11;60.07;102390.53;5049380;28;20034;-59
2022/03/28 04:34:07;;;;;;;24.35;10.75;;;;;;;8.11;59.81;102393.28;5043825;28;20022;-59
2022/03/28 04:36:35;;;;;;;29.02;11.57;;;;;;;8.09;60.31;102395.38;5048685;28;20096;-59
2022/03/28 04:39:00;;;;;;;23.75;10.50;;;;;;;8.06;59.63;102401.34;5045311;28;20550;-59
2022/03/28 04:41:26;;;;;;;23.08;10.90;;;;;;;8.06;60.02;102394.97;5048669;28;20031;-59
2022/03/28 04:43:57;;;;;;;25.02;11.38;;;;;;;8.03;59.90;102393.44;5052576;28;20047;-59
2022/03/28 04:46:25;;;;;;;21.55;10.32;;;;;;;8.04;59.67;102403.44;5053105;28;20029;-59
2022/03/28 04:48:50;;;;;;;25.70;10.55;;;;;;;8.07;60.25;102393.91;5052282;28;20017;-59
2022/03/28 04:51:16;;;;;;;21.20;10.68;;;;;;;8.04;59.76;102400.66;5054697;28;20136;-59
2022/03/28 04:53:41;;;;;;;24.63;11.07;;;;;;;8.02;59.35;102388.97;5054906;28;20451;-59
2022/03/28 04:56:07;;;;;;;21.67;9.85;;;;;;;8.02;59.30;102394.50;5060598;28;20068;-59
2022/03/28 04:58:32;;;;;;;24.88;10.80;;;;;;;8.04;59.52;102394.28;5054044;28;20106;-59
2022/03/28 05:00:57;;;;;;;23.85;10.90;;;;;;;8.00;59.28;102399.34;5056539;28;20024;-59
2022/03/28 05:03:23;;;;;;;23.38;10.20;;;;;;;7.99;59.89;102392.13;5052066;28;20133;-59
2022/03/28 05:05:48;;;;;;;18.73;9.65;;;;;;;7.98;59.50;102395.94;5053684;28;20079;-59
2022/03/28 05:08:13;;;;;;;24.30;10.43;;;;;;;7.91;59.68;102400.56;5052996;28;20451;-59
2022/03/28 05:10:40;;;;;;;23.95;10.23;;;;;;;7.89;60.55;102397.13;5056681;28;20082;-59
2022/03/28 05:13:08;;;;;;;23.90;10.52;;;;;;;7.83;60.00;102392.41;5051581;28;20029;-58
2022/03/28 05:15:34;;;;;;;24.17;10.48;;;;;;;7.82;59.89;102398.94;5051506;28;20032;-59
2022/03/28 05:18:02;;;;;;;25.55;10.07;;;;;;;7.84;59.88;102388.56;5054086;28;20032;-59
2022/03/28 05:20:27;;;;;;;22.65;10.18;;;;;;;7.80;60.20;102393.63;5038781;28;20123;-59
2022/03/28 05:22:55;;;;;;;23.50;10.90;;;;;;;7.75;59.87;102395.28;5049626;28;20094;-59
2022/03/28 05:25:23;;;;;;;22.85;9.75;;;;;;;7.78;60.15;102394.88;5056075;28;20021;-59
2022/03/28 05:27:49;;;;;;;25.92;10.52;;;;;;;7.77;59.55;102393.16;5041757;28;20036;-59
2022/03/28 05:30:15;;;;;;;28.30;10.15;;;;;;;7.73;60.20;102400.16;5050844;28;20021;-59
2022/03/28 05:32:44;;;;;;;22.95;10.25;;;;;;;7.73;60.21;102392.69;5047372;28;20033;-58
2022/03/28 05:35:10;;;;;;;21.98;10.32;;;;;;;7.69;59.91;102388.63;5042432;28;20481;-59
2022/03/28 05:37:36;;;;;;;20.10;10.25;;;;;;;7.70;59.93;102392.25;5042259;28;20087;-59
2022/03/28 05:40:03;;;;;;;22.35;10.75;;;;;;;7.64;60.33;102391.13;5045699;28;20037;-58
2022/03/28 05:42:28;;;;;;;24.52;10.52;;;;;;;7.66;60.32;102389.00;5041843;28;20056;-59
2022/03/28 05:44:54;;;;;;;24.77;9.68;;;;;;;7.71;60.04;102389.31;5042714;28;20094;-59
2022/03/28 05:47:19;;;;;;;21.25;10.10;;;;;;;7.72;60.29;102387.38;5051665;28;20064;-58
2022/03/28 05:49:44;;;;;;;21.83;9.93;;;;;;;7.72;60.22;102381.84;5059763;28;20024;-58
2022/03/28 05:52:10;;;;;;;22.65;10.18;;;;;;;7.70;60.06;102381.19;5048570;28;20033;-59
2022/03/28 05:54:38;;;;;;;24.00;9.48;;;;;;;7.71;60.68;102372.72;5051972;28;20025;-58
2022/03/28 05:57:05;;;;;;;23.50;10.50;;;;;;;7.70;60.34;102375.66;5046926;28;20124;-58
2022/03/28 05:59:34;;;;;;;31.38;12.98;;;;;;;7.70;60.52;102376.50;5040555;28;20095;-58
2022/03/28 06:01:59;;;;;;;20.15;10.30;;;;;;;7.72;61.10;102374.41;5049724;28;20049;-58
2022/03/28 06:04:24;;;;;;;25.48;10.00;;;;;;;7.77;60.61;102371.91;5045102;28;20138;-59
2022/03/28 06:06:50;;;;;;;28.55;11.00;;;;;;;7.84;61.40;102367.31;5047438;28;20085;-58
2022/03/28 06:09:15;;;;;;;23.92;9.88;;;;;;;7.87;61.30;102366.91;5040253;28;20029;-59
2022/03/28 06:11:40;;;;;;;26.77;10.10;;;;;;;7.90;61.40;102371.22;5045226;28;20500;-58
2022/03/28 06:14:06;;;;;;;25.67;11.10;;;;;;;7.94;61.60;102372.53;5048931;28;20028;-59
2022/03/28 06:16:31;;;;;;;26.00;9.68;;;;;;;7.96;62.30;102375.06;5037527;28;20068;-59
2022/03/28 06:18:56;;;;;;;22.60;10.40;;;;;;;7.97;61.89;102372.09;5038522;28;20756;-60
2022/03/28 06:21:22;;;;;;;29.55;10.57;;;;;;;8.01;62.00;102365.13;5032404;28;20056;-59
2022/03/28 06:23:47;;;;;;;25.65;10.07;;;;;;;8.05;62.00;102366.41;5039966;28;20021;-59
2022/03/28 06:26:13;;;;;;;26.90;10.65;;;;;;;8.07;62.51;102367.09;5038790;28;20515;-59
2022/03/28 06:28:40;;;;;;;29.30;10.43;;;;;;;8.13;62.21;102365.44;5042549;28;20080;-59
2022/03/28 06:31:06;;;;;;;34.47;10.85;;;;;;;8.20;63.25;102376.56;5040383;28;20080;-59
2022/03/28 06:33:35;;;;;;;30.73;10.98;;;;;;;8.27;63.21;102369.16;5039982;28;20469;-62
2022/03/28 06:36:00;;;;;;;27.33;10.48;;;;;;;8.39;62.88;102369.50;5038568;28;20040;-59
2022/03/28 06:38:26;;;;;;;33.55;11.57;;;;;;;8.44;62.65;102365.06;5034784;28;20030;-59
2022/03/28 06:40:51;;;;;;;26.17;11.50;;;;;;;8.47;63.86;102369.34;5035703;28;20384;-60
2022/03/28 06:43:17;;;;;;;24.05;10.18;;;;;;;8.48;64.01;102366.38;5040474;28;20032;-60
2022/03/28 06:45:42;;;;;;;28.95;10.15;;;;;;;8.51;63.22;102382.56;5042841;28;20373;-60
2022/03/28 06:48:08;;;;;;;30.10;10.35;;;;;;;8.53;63.25;102374.94;5046873;28;20032;-59
2022/03/28 06:50:34;;;;;;;29.90;10.48;;;;;;;8.56;63.17;102377.28;5052574;28;20040;-59
2022/03/28 06:53:00;;;;;;;31.58;10.82;;;;;;;8.66;64.09;102374.16;5044955;28;20032;-61
2022/03/28 06:55:26;;;;;;;30.38;10.55;;;;;;;8.70;63.74;102366.31;5036437;28;20029;-57
2022/03/28 06:57:51;;;;;;;29.20;10.93;;;;;;;8.73;63.80;102365.91;5043101;28;20476;-57
2022/03/28 07:00:17;;;;;;;34.05;11.20;;;;;;;8.77;63.39;102358.91;5042013;28;20029;-57
2022/03/28 07:02:43;;;;;;;30.08;10.88;;;;;;;8.87;63.82;102362.13;5039193;28;20740;-60
2022/03/28 07:05:09;;;;;;;25.30;10.50;;;;;;;8.92;63.47;102359.63;5046037;28;20033;-59
2022/03/28 07:07:46;;;;;;;31.25;11.35;;;;;;;8.97;63.04;102354.31;5046742;28;20103;-60
2022/03/28 07:10:13;;;;;;;32.05;11.88;;;;;;;8.99;63.47;102357.72;5046372;28;20037;-60
2022/03/28 07:12:39;;;;;;;32.05;11.75;;;;;;;9.08;62.89;102353.72;5046583;28;20021;-60
2022/03/28 07:15:06;;;;;;;27.35;11.88;;;;;;;9.11;62.98;102349.66;5039061;28;20407;-59
2022/03/28 07:17:44;;;;;;;33.60;12.00;;;;;;;9.16;62.56;102349.06;5029923;28;20037;-59
2022/03/28 07:20:10;;;;;;;34.80;11.82;;;;;;;9.19;63.12;102338.41;5041506;28;20047;-59
2022/03/28 07:22:35;;;;;;;27.67;11.77;;;;;;;9.19;63.48;102338.41;5043760;28;20490;-60
2022/03/28 07:25:01;;;;;;;32.20;12.20;;;;;;;9.27;62.23;102342.91;5040703;28;20082;-59
2022/03/28 07:27:27;;;;;;;31.13;12.88;;;;;;;9.29;63.04;102335.25;5047184;28;20863;-60
2022/03/28 07:29:52;;;;;;;30.13;11.98;;;;;;;9.36;63.11;102338.91;5046014;28;20029;-59
2022/03/28 07:32:17;;;;;;;35.58;13.43;;;;;;;9.36;63.08;102336.13;5047228;28;20489;-59
2022/03/28 07:34:42;;;;;;;34.22;13.18;;;;;;;9.45;63.08;102337.66;5035772;28;20044;-58
2022/03/28 07:37:09;;;;;;;34.80;13.50;;;;;;;9.52;62.53;102337.66;5042914;28;20060;-59
2022/03/28 07:39:34;;;;;;;30.23;13.18;;;;;;;9.58;63.29;102326.56;5047112;28;20029;-59
2022/03/28 07:42:01;;;;;;;32.10;13.77;;;;;;;9.63;62.56;102323.19;5046748;28;20077;-58
2022/03/28 07:44:26;;;;;;;37.20;14.05;;;;;;;9.72;63.00;102321.91;5045803;28;20045;-58
2022/03/28 07:46:51;;;;;;;33.55;14.80;;;;;;;9.79;62.93;102316.38;5046810;28;20033;-59
2022/03/28 07:49:34;;;;;;;35.38;14.77;;;;;;;9.93;62.51;102318.09;5039375;28;20032;-65
2022/03/28 07:51:59;;;;;;;;;;;;;;;10.07;61.17;102302.31;5039057;28;20029;-59
2022/03/28 07:54:27;;;;;;;36.03;14.83;;;;;;;10.06;62.14;102297.78;5038418;28;19921;-60
2022/03/28 07:56:52;;;;;;;34.50;14.20;;;;;;;10.14;62.20;102303.16;5040996;28;20307;-58
2022/03/28 07:59:24;;;;;;;40.17;14.90;;;;;;;10.23;61.94;102312.09;5042463;28;20536;-60
2022/03/28 08:01:51;;;;;;;35.67;15.50;;;;;;;10.35;62.01;102315.09;5040484;28;20039;-58
2022/03/28 08:04:17;;;;;;;31.23;14.18;;;;;;;10.43;61.77;102301.84;5039171;28;20108;-58
2022/03/28 08:06:42;;;;;;;34.25;15.48;;;;;;;10.55;61.91;102302.03;5031228;28;20163;-58
2022/03/28 08:09:07;;;;;;;39.33;15.55;;;;;;;10.67;61.57;102314.16;5030557;28;20029;-58
2022/03/28 08:11:37;;;;;;;37.17;16.30;;;;;;;10.79;61.07;102300.47;5038231;28;20675;-58
2022/03/28 08:14:03;;;;;;;34.92;16.25;;;;;;;10.92;60.74;102303.16;5039955;28;20041;-58
2022/03/28 08:16:29;;;;;;;34.45;15.23;;;;;;;11.04;60.73;102297.78;5039769;28;20033;-59
2022/03/28 08:18:54;;;;;;;37.75;16.23;;;;;;;11.16;60.73;102295.16;5050377;28;20048;-59
2022/03/28 08:21:19;;;;;;;32.67;16.25;;;;;;;11.24;60.25;102292.16;5041600;28;20079;-59
2022/03/28 08:23:45;;;;;;;32.60;15.35;;;;;;;11.40;59.73;102288.84;5052697;28;20032;-60
2022/03/28 08:26:10;;;;;;;37.90;16.60;;;;;;;11.48;59.72;102294.13;5051989;28;20028;-60
2022/03/28 08:28:35;;;;;;;33.92;16.55;;;;;;;11.62;59.93;102288.47;5045511;28;20469;-60
2022/03/28 08:31:01;;;;;;;40.15;17.73;;;;;;;11.71;59.09;102282.41;5046608;28;20037;-59
2022/03/28 08:33:26;;;;;;;40.15;17.58;;;;;;;11.77;58.81;102280.66;5061153;28;20031;-59
2022/03/28 08:35:53;;;;;;;33.40;15.88;;;;;;;11.86;58.31;102281.25;5050545;28;20495;-58
2022/03/28 08:38:18;;;;;;;36.15;16.90;;;;;;;11.97;58.30;102281.34;5049545;28;20104;-59
2022/03/28 08:40:44;;;;;;;37.55;17.30;;;;;;;12.09;58.28;102278.69;5049002;28;20125;-58
2022/03/28 08:43:09;;;;;;;38.78;18.42;;;;;;;12.24;57.86;102279.19;5050818;28;20021;-59
2022/03/28 08:45:38;;;;;;;37.72;18.65;;;;;;;12.31;58.50;102270.75;5043142;28;20064;-61
2022/03/28 08:48:06;;;;;;;37.33;17.80;;;;;;;12.46;57.96;102279.59;5047626;28;20033;-60
2022/03/28 08:50:33;;;;;;;39.90;20.05;;;;;;;12.58;57.50;102270.47;5048304;28;20471;-59
2022/03/28 08:52:58;;;;;;;38.25;19.48;;;;;;;12.67;57.62;102264.34;5048998;28;20029;-58
2022/03/28 08:55:24;;;;;;;38.97;18.73;;;;;;;12.77;57.16;102264.66;5046693;28;20095;-58
2022/03/28 08:57:49;;;;;;;40.63;19.98;;;;;;;12.86;57.04;102270.75;5045824;28;20028;-58
2022/03/28 09:00:16;;;;;;;45.05;21.27;;;;;;;12.93;56.81;102263.19;5042542;28;20021;-59
2022/03/28 09:02:45;;;;;;;39.45;20.77;;;;;;;13.05;56.33;102267.94;5057587;28;20057;-58
2022/03/28 09:05:12;;;;;;;40.30;20.88;;;;;;;13.15;56.77;102274.66;5052849;28;20067;-59
2022/03/28 09:07:38;;;;;;;42.60;21.00;;;;;;;13.24;56.44;102272.41;5053604;28;20112;-58
2022/03/28 09:10:06;;;;;;;41.17;21.80;;;;;;;13.30;55.62;102257.53;5035154;28;20482;-59
2022/03/28 09:12:39;;;;;;;40.97;21.48;;;;;;;13.39;55.80;102267.25;5042942;28;20805;-58
2022/03/28 09:15:09;;;;;;;44.65;22.20;;;;;;;13.39;55.76;102260.84;5041799;28;20460;-59
2022/03/28 09:17:34;;;;;;;38.10;21.30;;;;;;;13.50;55.84;102258.09;5052022;28;20211;-58
2022/03/28 09:20:03;;;;;;;43.20;21.58;;;;;;;13.62;55.46;102254.47;5052579;28;20115;-59
2022/03/28 09:22:30;;;;;;;40.63;21.80;;;;;;;13.69;55.07;102256.06;5052765;28;20025;-57
2022/03/28 09:24:59;;;;;;;43.72;21.35;;;;;;;13.79;54.86;102251.81;5052449;28;20040;-58
2022/03/28 09:27:27;;;;;;;40.45;21.10;;;;;;;13.88;54.86;102253.19;5052563;28;20459;-58
2022/03/28 09:29:53;;;;;;;43.42;21.73;;;;;;;13.94;54.52;102247.47;5042997;28;20056;-58
2022/03/28 09:32:27;;;;;;;44.83;21.52;;;;;;;14.00;54.32;102254.03;5042326;28;20021;-58
2022/03/28 09:35:23;;;;;;;34.17;15.95;;;;;;;14.36;54.73;102247.34;5052286;28;20052;-58
2022/03/28 09:37:57;;;;;;;36.50;19.67;;;;;;;14.57;54.41;102247.84;5048675;28;20016;-58
2022/03/28 09:40:23;;;;;;;40.30;20.08;;;;;;;14.61;54.08;102244.28;5047622;28;20055;-58
2022/03/28 09:42:49;;;;;;;41.90;21.15;;;;;;;14.65;53.30;102239.91;5048519;28;20029;-58
2022/03/28 09:45:19;;;;;;;39.55;22.00;;;;;;;14.70;52.68;102231.66;5049530;28;20032;-58
2022/03/28 09:48:02;;;;;;;43.08;22.85;;;;;;;14.75;53.23;102235.66;5047959;28;20667;-58
2022/03/28 09:50:39;;;;;;;42.67;22.02;;;;;;;14.77;51.85;102234.28;5036060;28;20023;-58
2022/03/28 09:53:11;;;;;;;44.72;23.45;;;;;;;14.83;52.27;102224.94;5054508;28;20025;-59
2022/03/28 09:55:56;;;;;;;41.63;23.63;;;;;;;14.86;52.55;102221.63;5050643;28;20029;-58
2022/03/28 09:58:35;;;;;;;42.50;23.10;;;;;;;14.94;52.48;102226.84;5031372;28;20523;-58
2022/03/28 10:01:05;;;;;;;50.75;24.67;;;;;;;14.94;51.58;102215.66;5031861;28;20038;-58
2022/03/28 10:03:35;;;;;;;44.05;22.42;;;;;;;14.98;52.11;102221.59;5037233;28;20072;-58
2022/03/28 10:06:03;;;;;;;45.85;24.73;;;;;;;15.06;51.85;102225.94;5039970;28;20287;-59
2022/03/28 10:08:29;;;;;;;47.33;25.02;;;;;;;15.09;50.36;102214.22;5052366;28;20063;-59
2022/03/28 10:10:57;;;;;;;42.15;24.75;;;;;;;15.07;50.24;102216.44;5041877;28;20104;-59
2022/03/28 10:13:22;;;;;;;45.35;26.05;;;;;;;15.08;50.70;102210.59;5044020;28;20490;-59
2022/03/28 10:15:51;;;;;;;44.47;25.35;;;;;;;15.14;50.46;102217.16;5055225;28;20025;-59
2022/03/28 10:18:16;;;;;;;43.03;25.50;;;;;;;15.19;50.38;102208.84;5046441;28;20033;-61
2022/03/28 10:20:46;;;;;;;45.30;25.08;;;;;;;15.22;51.05;102212.00;5040322;28;20032;-60
2022/03/28 10:23:17;;;;;;;44.67;24.45;;;;;;;15.19;50.74;102203.25;5037093;28;20087;-60
2022/03/28 10:25:43;;;;;;;44.28;24.73;;;;;;;15.31;50.96;102205.97;5046222;28;20418;-61
2022/03/28 10:28:09;;;;;;;44.55;25.35;;;;;;;15.36;49.99;102203.28;5044294;28;20033;-62
2022/03/28 10:30:35;;;;;;;43.10;24.95;;;;;;;15.45;49.79;102194.22;5043714;28;20024;-60
2022/03/28 10:33:17;;;;;;;35.83;17.88;;;;;;;15.67;50.91;102193.47;5044550;28;20036;-62
2022/03/28 10:35:58;;;;;;;44.88;24.70;;;;;;;15.65;50.12;102190.94;5043551;28;20036;-62
2022/03/28 10:38:24;;;;;;;38.53;23.40;;;;;;;15.66;49.79;102184.25;5043474;28;20094;-60
2022/03/28 10:40:58;;;;;;;41.95;22.15;;;;;;;15.68;50.26;102179.25;5036308;28;20480;-61
2022/03/28 10:43:27;;;;;;;38.55;22.80;;;;;;;15.68;49.19;102172.81;5039629;28;20030;-61
2022/03/28 10:46:01;;;;;;;40.55;22.00;;;;;;;15.78;49.41;102170.16;5039345;28;20030;-61
2022/03/28 10:48:34;;;;;;;43.83;22.60;;;;;;;15.79;49.40;102166.25;5040419;28;20097;-61
2022/03/28 10:51:09;;;;;;;39.88;22.42;;;;;;;15.82;49.17;102165.75;5037929;28;20057;-62
2022/03/28 10:53:41;;;;;;;42.47;23.83;;;;;;;15.78;49.02;102161.75;5036348;28;20415;-62
2022/03/28 10:56:30;;;;;;;38.97;22.52;;;;;;;15.80;49.68;102159.56;5034723;28;20602;-61
2022/03/28 10:59:03;;;;;;;38.08;21.67;;;;;;;15.84;49.63;102157.09;5038274;28;20140;-61
2022/03/28 11:01:44;;;;;;;42.60;23.25;;;;;;;15.89;49.35;102158.00;5043359;28;20159;-60
2022/03/28 11:04:12;;;;;;;41.80;23.25;;;;;;;15.92;48.92;102159.47;5047207;28;20515;-60
2022/03/28 11:06:50;;;;;;;44.70;24.48;;;;;;;16.00;47.25;102163.78;5039392;28;20051;-60
2022/03/28 11:09:34;;;;;;;42.28;24.48;;;;;;;16.04;47.33;102162.16;5041933;28;20036;-61
2022/03/28 11:12:04;;;;;;;41.50;25.25;;;;;;;16.07;46.70;102153.22;5033134;28;20065;-61
2022/03/28 11:14:39;;;;;;;40.85;25.58;;;;;;;16.07;46.19;102136.41;5048351;28;20387;-61